Time;durP1;ratioP1;P1;durP2;ratioP2;P2;SDS_P1;SDS_P2;PMS_P1;PMS_P2;Temp;Humidity;BMP_temperature;BMP_pressure;BME280_temperature;BME280_humidity;BME280_pressure;Samples;Min_cycle;Max_cycle;Signal;HPM_P1;HPM_P2
2022/09/08 04:32:29;;;;;;;13.88;8.95;;;19.20;1.00;;;;;;6216974;22;20024;-91
2022/09/08 04:35:13;;;;;;;9.13;6.38;;;19.20;1.00;;;;;;6167090;23;20436;-90
2022/09/08 04:37:53;;;;;;;;;;;19.10;1.00;;;;;;6169237;23;20104;-90
2022/09/08 04:40:42;;;;;;;10.07;6.95;;;19.10;1.00;;;;;;6167549;23;19954;-90
2022/09/08 04:43:25;;;;;;;3.78;3.03;;;19.00;1.00;;;;;;6193662;23;20070;-91
2022/09/08 04:46:26;;;;;;;7.78;3.97;;;19.10;1.00;;;;;;6191878;23;20336;-90
2022/09/08 04:49:03;;;;;;;8.32;4.00;;;19.10;1.00;;;;;;6190972;23;20360;-90
2022/09/08 04:56:08;;;;;;;6.72;4.45;;;19.10;1.00;;;;;;6216743;23;20080;-90
2022/09/08 04:58:39;;;;;;;8.77;5.75;;;19.00;1.00;;;;;;6165049;23;20020;-88
2022/09/08 05:01:14;;;;;;;7.60;4.18;;;19.00;1.00;;;;;;6189704;23;20173;-90
2022/09/08 05:03:46;;;;;;;8.80;5.80;;;19.10;1.00;;;;;;6165645;23;20519;-91
2022/09/08 05:06:15;;;;;;;5.97;4.05;;;19.10;1.00;;;;;;6173588;23;20021;-89
2022/09/08 05:08:44;;;;;;;8.98;5.75;;;19.10;1.00;;;;;;6165040;23;20031;-88
2022/09/08 05:11:13;;;;;;;9.48;4.95;;;19.00;1.00;;;;;;6189631;23;20028;-91
2022/09/08 05:13:40;;;;;;;5.43;4.07;;;19.00;1.00;;;;;;6215220;23;20103;-90
2022/09/08 05:16:14;;;;;;;5.63;3.90;;;19.00;1.00;;;;;;6189229;23;20029;-90
2022/09/08 05:18:42;;;;;;;10.93;4.65;;;19.10;1.00;;;;;;6215881;23;20015;-88
2022/09/08 05:21:16;;;;;;;9.57;3.37;;;19.10;1.00;;;;;;6214853;23;20013;-91
2022/09/08 05:23:49;;;;;;;3.53;3.05;;;19.10;1.00;;;;;;6190166;23;20079;-90
2022/09/08 05:26:18;;;;;;;5.13;2.72;;;19.20;1.00;;;;;;6164373;23;20013;-88
2022/09/08 05:28:46;;;;;;;6.53;3.70;;;19.20;1.00;;;;;;6164724;23;20103;-89
2022/09/08 05:31:18;;;;;;;3.92;3.13;;;19.20;1.00;;;;;;6189142;23;20025;-89
2022/09/08 05:33:49;;;;;;;4.40;3.33;;;19.20;1.00;;;;;;6188556;23;20055;-90
2022/09/08 05:36:23;;;;;;;3.85;3.22;;;19.20;1.00;;;;;;6162964;23;20021;-88
2022/09/08 05:38:51;;;;;;;7.75;3.63;;;19.20;1.00;;;;;;6189501;23;20067;-90
2022/09/08 05:41:21;;;;;;;6.00;3.25;;;19.10;1.00;;;;;;6190772;23;20021;-88
2022/09/08 05:43:52;;;;;;;7.53;4.22;;;19.20;1.00;;;;;;6188655;23;20071;-90
2022/09/08 05:46:19;;;;;;;4.03;3.00;;;19.10;1.00;;;;;;6164803;23;20027;-90
2022/09/08 05:48:52;;;;;;;7.20;4.53;;;19.10;1.00;;;;;;6190464;23;20383;-90
2022/09/08 05:51:24;;;;;;;6.80;4.45;;;19.10;1.00;;;;;;6190455;23;20036;-91
2022/09/08 05:53:58;;;;;;;4.22;3.42;;;19.00;1.00;;;;;;6202771;23;20020;-89
2022/09/08 05:56:53;;;;;;;7.05;4.25;;;19.00;1.00;;;;;;6216099;23;20000;-89
2022/09/08 05:59:33;;;;;;;4.95;3.30;;;18.90;1.00;;;;;;6242745;23;20029;-90
2022/09/08 06:02:02;;;;;;;7.63;3.67;;;18.90;1.00;;;;;;6243648;23;20007;-89
2022/09/08 06:04:40;;;;;;;8.98;3.35;;;18.90;1.00;;;;;;6232715;23;20012;-89
2022/09/08 06:07:18;;;;;;;7.10;3.85;;;18.90;1.00;;;;;;6205847;23;20017;-89
2022/09/08 06:09:51;;;;;;;11.45;3.85;;;18.90;1.00;;;;;;6191120;23;20095;-90
2022/09/08 06:12:23;;;;;;;6.00;3.30;;;18.80;1.00;;;;;;6190555;23;20028;-89
2022/09/08 06:15:06;;;;;;;6.50;3.42;;;18.80;1.00;;;;;;6167096;23;20024;-90
2022/09/08 06:18:15;;;;;;;7.63;3.00;;;18.70;1.00;;;;;;6215154;23;20016;-90
2022/09/08 06:20:50;;;;;;;6.47;2.85;;;18.60;1.00;;;;;;6188992;23;20074;-89
2022/09/08 06:23:26;;;;;;;8.25;2.53;;;18.60;1.00;;;;;;6190783;23;20071;-90
2022/09/08 06:26:29;;;;;;;3.45;2.60;;;18.60;1.00;;;;;;6214597;23;20013;-91
2022/09/08 06:29:25;;;;;;;5.05;2.63;;;18.80;1.00;;;;;;6144977;23;20016;-90
2022/09/08 06:32:00;;;;;;;6.65;3.67;;;18.80;1.00;;;;;;6189892;23;20100;-89
2022/09/08 06:34:37;;;;;;;5.07;2.53;;;18.70;1.00;;;;;;6171652;23;20330;-89
2022/09/08 06:37:11;;;;;;;7.70;3.15;;;18.70;1.00;;;;;;6191419;23;20408;-90
2022/09/08 06:39:46;;;;;;;6.13;2.83;;;18.70;1.00;;;;;;6191415;23;20020;-90
2022/09/08 06:42:20;;;;;;;8.77;3.20;;;18.80;1.00;;;;;;6167003;23;20047;-91
2022/09/08 06:45:01;;;;;;;10.20;3.85;;;18.80;1.00;;;;;;6191994;23;20017;-90
2022/09/08 06:47:37;;;;;;;9.50;4.38;;;18.80;1.00;;;;;;6191280;23;20021;-90
2022/09/08 06:50:12;;;;;;;5.47;2.53;;;18.80;1.00;;;;;;6192100;23;20444;-91
2022/09/08 06:52:47;;;;;;;10.48;3.83;;;18.70;1.00;;;;;;6191579;23;20027;-90
2022/09/08 06:55:48;;;;;;;7.22;2.83;;;18.60;1.00;;;;;;6216748;23;20016;-90
2022/09/08 06:58:36;;;;;;;4.90;2.72;;;18.60;1.00;;;;;;6190958;23;20507;-89
2022/09/08 07:01:16;;;;;;;4.50;2.83;;;18.70;1.00;;;;;;6216405;23;20075;-89
2022/09/08 07:04:11;;;;;;;5.18;2.30;;;18.70;1.00;;;;;;6191214;23;20013;-90
2022/09/08 07:07:17;;;;;;;10.25;3.90;;;18.70;1.00;;;;;;6191361;23;20433;-90
2022/09/08 07:10:11;;;;;;;6.00;3.13;;;18.70;1.00;;;;;;6117817;23;20016;-89
2022/09/08 07:12:55;;;;;;;10.70;4.20;;;18.70;1.00;;;;;;6190909;23;20017;-89
2022/09/08 07:15:46;;;;;;;9.55;4.03;;;18.50;1.00;;;;;;6215992;23;20502;-89
2022/09/08 07:18:39;;;;;;;6.03;3.63;;;18.40;1.00;;;;;;6165616;23;20341;-88
2022/09/08 07:21:29;;;;;;;7.35;3.38;;;18.40;1.00;;;;;;6190782;23;20016;-89
2022/09/08 07:23:59;;;;;;;8.38;2.83;;;18.50;1.00;;;;;;6216398;23;20012;-90
2022/09/08 07:26:45;;;;;;;6.95;3.35;;;18.50;1.00;;;;;;6192605;23;20070;-88
2022/09/08 07:29:23;;;;;;;6.63;3.42;;;18.50;1.00;;;;;;6217420;23;20020;-89
2022/09/08 07:31:52;;;;;;;7.13;3.20;;;18.50;1.00;;;;;;6165814;23;20027;-88
2022/09/08 07:34:25;;;;;;;6.90;2.88;;;18.60;1.00;;;;;;6190523;23;20108;-90
2022/09/08 07:37:14;;;;;;;6.25;2.80;;;18.60;1.00;;;;;;6190177;23;20522;-90
2022/09/08 07:40:01;;;;;;;5.63;2.78;;;18.60;1.00;;;;;;6190973;23;20020;-89
2022/09/08 07:42:31;;;;;;;4.85;2.72;;;18.60;1.00;;;;;;6190572;23;20016;-89
2022/09/08 07:45:00;;;;;;;2.80;1.98;;;18.60;1.00;;;;;;6190511;23;20020;-89
2022/09/08 07:48:10;;;;;;;3.22;2.17;;;18.60;1.00;;;;;;6190601;23;20013;-90
2022/09/08 07:50:54;;;;;;;8.68;2.55;;;18.70;1.00;;;;;;6130405;23;20021;-90
2022/09/08 07:53:44;;;;;;;5.40;2.15;;;18.60;1.00;;;;;;6189296;23;20048;-90
2022/09/08 07:56:14;;;;;;;5.22;2.30;;;18.60;1.00;;;;;;6191097;23;20071;-90
2022/09/08 07:59:04;;;;;;;5.25;2.25;;;18.70;1.00;;;;;;6166125;23;20543;-89
2022/09/08 08:01:48;;;;;;;7.43;1.85;;;18.70;1.00;;;;;;6217018;23;20096;-91
2022/09/08 08:04:18;;;;;;;4.32;1.20;;;18.60;1.00;;;;;;6166259;23;20021;-90
2022/09/08 08:06:52;;;;;;;4.15;1.60;;;18.70;1.00;;;;;;6166269;23;20090;-89
2022/09/08 08:09:38;;;;;;;5.05;1.55;;;18.60;1.00;;;;;;6191309;23;20449;-89
2022/09/08 08:12:12;;;;;;;4.82;1.58;;;18.60;1.00;;;;;;6190487;23;20093;-90
2022/09/08 08:14:56;;;;;;;5.15;1.33;;;18.70;1.00;;;;;;6190598;23;20016;-90
2022/09/08 08:17:38;;;;;;;4.10;1.30;;;18.70;1.00;;;;;;6191511;23;20020;-90
2022/09/08 08:20:23;;;;;;;5.60;1.35;;;18.60;1.00;;;;;;6165935;23;20023;-89
2022/09/08 08:22:53;;;;;;;4.97;1.33;;;18.60;1.00;;;;;;6215625;23;20016;-89
2022/09/08 08:25:48;;;;;;;6.47;1.67;;;18.60;1.00;;;;;;6190793;23;20013;-89
2022/09/08 08:28:18;;;;;;;4.00;1.00;;;18.70;1.00;;;;;;6217505;23;20402;-90
2022/09/08 08:31:12;;;;;;;5.95;1.20;;;18.60;1.00;;;;;;6217151;23;20388;-89
2022/09/08 08:33:51;;;;;;;9.55;2.28;;;18.60;1.00;;;;;;6166745;23;20042;-89
2022/09/08 08:36:23;;;;;;;4.97;1.00;;;18.60;1.00;;;;;;6202879;23;20008;-89
2022/09/08 08:39:23;;;;;;;3.83;0.90;;;18.50;1.00;;;;;;6218659;23;20028;-88
2022/09/08 08:41:59;;;;;;;7.65;1.35;;;18.50;1.00;;;;;;6240761;23;20000;-89
2022/09/08 08:45:02;;;;;;;3.78;1.02;;;18.60;1.00;;;;;;6218523;23;20011;-88
2022/09/08 08:47:59;;;;;;;5.28;1.00;;;18.60;1.00;;;;;;6220499;23;20031;-90
2022/09/08 08:50:41;;;;;;;3.22;1.00;;;18.60;1.00;;;;;;6216525;23;20067;-89
2022/09/08 08:53:36;;;;;;;2.78;0.43;;;18.50;1.00;;;;;;6191452;23;20421;-90
2022/09/08 08:56:23;;;;;;;3.70;1.33;;;18.60;1.00;;;;;;6194146;23;20016;-90
2022/09/08 08:59:21;;;;;;;5.07;1.10;;;18.60;1.00;;;;;;6165432;23;20020;-89
2022/09/08 09:02:17;;;;;;;2.80;1.05;;;18.60;1.00;;;;;;6164723;23;20017;-89
2022/09/08 09:05:03;;;;;;;2.13;1.02;;;18.50;1.00;;;;;;6190084;23;20107;-89
2022/09/08 09:07:42;;;;;;;6.07;1.50;;;18.40;1.00;;;;;;6190261;23;20068;-89
2022/09/08 09:10:26;;;;;;;3.00;1.58;;;18.40;1.00;;;;;;6215330;23;20016;-89
2022/09/08 09:13:17;;;;;;;2.58;0.98;;;18.50;1.00;;;;;;6165898;23;20017;-90
2022/09/08 09:16:09;;;;;;;4.28;1.52;;;18.50;1.00;;;;;;6190380;23;20017;-90
2022/09/08 09:19:02;;;;;;;4.07;1.52;;;18.60;1.00;;;;;;6191139;23;20013;-88
2022/09/08 09:22:05;;;;;;;4.05;2.00;;;18.40;1.00;;;;;;6189991;23;20075;-89
2022/09/08 09:24:39;;;;;;;2.08;1.25;;;18.40;1.00;;;;;;6191426;23;20016;-89
2022/09/08 09:27:30;;;;;;;3.38;1.58;;;18.40;1.00;;;;;;6190123;23;20044;-90
2022/09/08 09:30:18;;;;;;;3.90;0.82;;;18.40;1.00;;;;;;6189698;23;20543;-90
2022/09/08 09:33:05;;;;;;;3.45;1.60;;;18.50;1.00;;;;;;6185330;23;20025;-89
2022/09/08 09:36:20;;;;;;;3.45;1.80;;;18.50;1.00;;;;;;6160269;23;20095;-90
2022/09/08 09:39:22;;;;;;;6.78;2.20;;;18.50;1.00;;;;;;6160335;23;20029;-90
2022/09/08 09:42:09;;;;;;;2.65;1.73;;;18.60;1.00;;;;;;6160565;23;20021;-90
2022/09/08 09:45:23;;;;;;;2.70;1.85;;;18.50;1.00;;;;;;6161032;23;20017;-90
2022/09/08 09:48:25;;;;;;;4.97;1.95;;;18.50;1.00;;;;;;6124471;23;20548;-90
2022/09/08 09:50:55;;;;;;;3.17;1.85;;;18.40;1.00;;;;;;6153791;23;20388;-90
2022/09/08 09:53:49;;;;;;;5.40;2.28;;;18.40;1.00;;;;;;6160659;23;20048;-88
2022/09/08 09:56:23;;;;;;;6.45;1.90;;;18.40;1.00;;;;;;6160132;23;20017;-89
2022/09/08 09:59:22;;;;;;;6.65;1.30;;;18.40;1.00;;;;;;6160098;23;20017;-89
2022/09/08 10:01:52;;;;;;;6.25;1.48;;;18.40;1.00;;;;;;6160286;23;20021;-90
2022/09/08 10:04:22;;;;;;;3.00;1.38;;;18.50;1.00;;;;;;6159965;23;20021;-90
2022/09/08 10:07:19;;;;;;;3.70;1.27;;;18.40;1.00;;;;;;6159753;23;20096;-92
2022/09/08 10:10:09;;;;;;;3.95;1.27;;;18.50;1.00;;;;;;6161568;23;20025;-89
2022/09/08 10:12:58;;;;;;;2.25;1.00;;;18.60;1.00;;;;;;6161535;23;20025;-89
2022/09/08 10:16:19;;;;;;;6.55;1.15;;;18.60;1.00;;;;;;6162546;23;20449;-88
2022/09/08 10:19:07;;;;;;;5.05;1.27;;;18.60;1.00;;;;;;6101629;23;20085;-89
2022/09/08 10:22:12;;;;;;;3.03;1.07;;;18.60;1.00;;;;;;6163889;23;20446;-89
2022/09/08 10:25:01;;;;;;;5.13;1.52;;;18.50;1.00;;;;;;6137284;23;20464;-90
2022/09/08 10:27:53;;;;;;;3.30;0.90;;;18.60;1.00;;;;;;6164938;23;20021;-89
2022/09/08 10:31:01;;;;;;;5.80;1.50;;;18.70;1.00;;;;;;6164762;23;20113;-89
2022/09/08 10:34:13;;;;;;;5.95;2.28;;;18.70;1.00;;;;;;6162145;23;20067;-88
2022/09/08 10:37:04;;;;;;;2.35;1.17;;;18.70;1.00;;;;;;6137387;23;20504;-89
2022/09/08 10:40:18;;;;;;;4.20;1.98;;;18.60;1.00;;;;;;6161762;23;20451;-89
2022/09/08 10:42:49;;;;;;;6.30;2.35;;;18.70;1.00;;;;;;6161748;23;20021;-89
2022/09/08 10:45:21;;;;;;;4.30;1.42;;;18.70;1.00;;;;;;6137592;23;20036;-89
2022/09/08 10:48:27;;;;;;;3.45;1.15;;;18.70;1.00;;;;;;6162327;23;20027;-90
2022/09/08 10:51:13;;;;;;;3.05;1.00;;;18.80;1.00;;;;;;6102025;23;20022;-89
2022/09/08 10:54:08;;;;;;;5.05;2.00;;;18.80;1.00;;;;;;6126209;23;20455;-88
2022/09/08 10:56:37;;;;;;;3.90;1.52;;;18.80;1.00;;;;;;6199636;23;20028;-89
2022/09/08 10:59:27;;;;;;;2.22;1.30;;;18.80;1.00;;;;;;6161704;23;20095;-89
2022/09/08 11:02:35;;;;;;;4.78;1.10;;;18.80;1.00;;;;;;6166509;23;20013;-90
2022/09/08 11:05:42;;;;;;;2.17;0.93;;;18.90;1.00;;;;;;6161341;23;20062;-89
2022/09/08 11:08:39;;;;;;;2.92;0.90;;;18.80;1.00;;;;;;6162091;23;20017;-90
2022/09/08 11:11:37;;;;;;;6.75;1.38;;;18.80;1.00;;;;;;6169280;23;20020;-89
2022/09/08 11:14:44;;;;;;;6.90;1.48;;;18.80;1.00;;;;;;6162360;23;20045;-90
2022/09/08 11:17:23;;;;;;;2.30;1.10;;;18.70;1.00;;;;;;6168380;23;20021;-90
2022/09/08 11:20:11;;;;;;;2.33;1.13;;;18.80;1.00;;;;;;6189196;23;20028;-88
2022/09/08 11:23:00;;;;;;;4.45;1.55;;;18.80;1.00;;;;;;6189046;23;19993;-89
2022/09/08 11:25:47;;;;;;;4.80;1.30;;;18.80;1.00;;;;;;6189579;23;20027;-89
2022/09/08 11:28:39;;;;;;;4.10;1.77;;;18.80;1.00;;;;;;6214742;23;19997;-90
2022/09/08 11:31:31;;;;;;;2.83;0.85;;;18.80;1.00;;;;;;6168434;23;20013;-88
2022/09/08 11:34:32;;;;;;;3.60;1.10;;;18.80;1.00;;;;;;6160899;23;20016;-89
2022/09/08 11:37:36;;;;;;;7.85;1.48;;;18.80;1.00;;;;;;6160520;23;20043;-89
2022/09/08 11:40:50;;;;;;;2.65;1.30;;;18.80;1.00;;;;;;6209913;23;20021;-88
2022/09/08 11:43:36;;;;;;;3.97;0.88;;;18.80;1.00;;;;;;6160484;23;20354;-89
2022/09/08 11:46:34;;;;;;;5.28;1.13;;;18.90;1.00;;;;;;6186461;23;20017;-88
2022/09/08 11:49:29;;;;;;;4.32;1.73;;;18.90;1.00;;;;;;6160118;23;20415;-88
2022/09/08 11:52:40;;;;;;;5.03;1.48;;;19.00;1.00;;;;;;6186987;23;20052;-89
2022/09/08 11:55:34;;;;;;;5.60;1.65;;;19.00;1.00;;;;;;6160841;23;20079;-89
2022/09/08 11:58:35;;;;;;;6.07;1.42;;;19.10;1.00;;;;;;6136425;23;20021;-89
2022/09/08 12:01:07;;;;;;;6.38;1.98;;;19.10;1.00;;;;;;6187138;23;20029;-89
2022/09/08 12:03:49;;;;;;;3.83;1.63;;;19.20;1.00;;;;;;6161009;23;20028;-89
2022/09/08 12:06:42;;;;;;;7.38;2.25;;;19.20;1.00;;;;;;6160387;23;20017;-90
2022/09/08 12:09:47;;;;;;;4.80;1.90;;;19.20;1.00;;;;;;6160087;23;20381;-90
2022/09/08 12:12:23;;;;;;;7.43;1.80;;;19.20;1.00;;;;;;6136162;23;20401;-90
2022/09/08 12:15:19;;;;;;;2.30;1.27;;;19.30;1.00;;;;;;6160419;23;20052;-91
2022/09/08 12:18:25;;;;;;;4.30;1.70;;;19.40;1.00;;;;;;6160216;23;20042;-90
2022/09/08 12:21:11;;;;;;;6.25;1.52;;;19.50;1.00;;;;;;6160959;23;20463;-89
2022/09/08 12:24:01;;;;;;;4.93;1.17;;;19.50;1.00;;;;;;6186799;23;20017;-90
2022/09/08 12:26:46;;;;;;;7.45;1.05;;;19.40;1.00;;;;;;6200305;23;20018;-89
2022/09/08 12:29:40;;;;;;;2.97;1.00;;;19.40;1.00;;;;;;6160583;23;20465;-88
2022/09/08 12:32:36;;;;;;;4.90;0.90;;;19.40;1.00;;;;;;6160531;23;20350;-91
2022/09/08 12:35:23;;;;;;;1.42;0.70;;;19.40;1.00;;;;;;6160738;23;20029;-89
2022/09/08 12:38:34;;;;;;;1.40;0.73;;;19.40;1.00;;;;;;6163086;23;20457;-90
2022/09/08 12:41:31;;;;;;;3.63;1.23;;;19.50;1.00;;;;;;6160618;23;20059;-89
2022/09/08 12:44:23;;;;;;;1.55;0.63;;;19.50;1.00;;;;;;6161036;23;20449;-89
2022/09/08 12:47:12;;;;;;;3.65;1.40;;;19.60;1.00;;;;;;6159894;23;20021;-89
2022/09/08 12:50:10;;;;;;;8.48;1.13;;;19.60;1.00;;;;;;6185696;23;20083;-90
2022/09/08 12:52:49;;;;;;;6.05;1.00;;;19.70;1.00;;;;;;6161011;23;20021;-90
2022/09/08 12:55:32;;;;;;;3.70;1.08;;;19.70;1.00;;;;;;6160455;23;20465;-90
2022/09/08 12:58:11;;;;;;;7.90;1.17;;;19.80;1.00;;;;;;6162143;23;20028;-88
2022/09/08 13:00:48;;;;;;;6.13;1.30;;;19.90;1.00;;;;;;6186254;23;20013;-89
2022/09/08 13:03:35;;;;;;;6.47;1.42;;;19.90;1.00;;;;;;6186316;23;20048;-89
2022/09/08 13:06:14;;;;;;;5.93;1.45;;;20.00;1.00;;;;;;6136609;23;20017;-90
2022/09/08 13:09:23;;;;;;;4.57;1.40;;;20.00;1.00;;;;;;6160832;23;20040;-89
2022/09/08 13:12:01;;;;;;;4.68;1.20;;;20.10;1.00;;;;;;6169270;23;20021;-90
2022/09/08 13:14:46;;;;;;;5.20;1.25;;;20.20;1.00;;;;;;6160052;23;20445;-91
2022/09/08 13:17:25;;;;;;;5.57;1.55;;;20.20;1.00;;;;;;6136930;23;20043;-91
2022/09/08 13:20:19;;;;;;;10.05;1.55;;;20.20;1.00;;;;;;6160723;23;20080;-90
2022/09/08 13:23:05;;;;;;;10.30;1.60;;;20.30;1.00;;;;;;6163075;23;20104;-90
2022/09/08 13:26:00;;;;;;;7.83;1.57;;;20.20;1.00;;;;;;6160813;23;20032;-91
2022/09/08 13:28:50;;;;;;;8.30;1.45;;;20.30;1.00;;;;;;6161108;23;20297;-90
2022/09/08 13:45:13;;;;;;;4.97;1.77;;;20.70;1.00;;;;;;6212989;23;20024;-91
2022/09/08 13:48:26;;;;;;;9.98;2.03;;;20.90;1.00;;;;;;6166927;23;20075;-92
2022/09/08 13:51:52;;;;;;;5.05;1.63;;;20.90;1.00;;;;;;6173731;23;20023;-92
2022/09/08 13:55:13;;;;;;;3.70;1.25;;;20.90;1.00;;;;;;6173346;23;20026;-91
2022/09/08 13:58:52;;;;;;;9.73;1.92;;;20.90;1.00;;;;;;6220876;23;20563;-91
